sensor_id;sensor_type;location;lat;lon;timestamp;P1;durP1;ratioP1;P2;durP2;ratioP2
17997;SDS011;9124;48.144;17.098;2023-07-31T00:03:39;4.40;;;2.50;;
17997;SDS011;9124;48.144;17.098;2023-07-31T00:08:05;2.70;;;2.50;;
17997;SDS011;9124;48.144;17.098;2023-07-31T00:12:31;4.30;;;2.33;;
17997;SDS011;9124;48.144;17.098;2023-07-31T00:16:58;4.07;;;2.45;;
17997;SDS011;9124;48.144;17.098;2023-07-31T00:21:24;1.98;;;1.88;;
17997;SDS011;9124;48.144;17.098;2023-07-31T00:25:50;1.80;;;1.70;;
17997;SDS011;9124;48.144;17.098;2023-07-31T00:30:17;3.08;;;2.08;;
17997;SDS011;9124;48.144;17.098;2023-07-31T00:34:43;2.58;;;2.22;;
17997;SDS011;9124;48.144;17.098;2023-07-31T00:44:01;3.53;;;2.40;;
17997;SDS011;9124;48.144;17.098;2023-07-31T00:48:28;2.45;;;2.33;;
17997;SDS011;9124;48.144;17.098;2023-07-31T00:52:55;2.97;;;2.55;;
17997;SDS011;9124;48.144;17.098;2023-07-31T00:57:21;3.33;;;2.15;;
17997;SDS011;9124;48.144;17.098;2023-07-31T01:01:47;5.45;;;2.70;;
17997;SDS011;9124;48.144;17.098;2023-07-31T01:06:15;8.75;;;3.25;;
17997;SDS011;9124;48.144;17.098;2023-07-31T01:10:51;2.92;;;2.72;;
17997;SDS011;9124;48.144;17.098;2023-07-31T01:26:43;2.58;;;2.42;;
17997;SDS011;9124;48.144;17.098;2023-07-31T01:31:16;8.00;;;2.90;;
17997;SDS011;9124;48.144;17.098;2023-07-31T01:35:48;2.92;;;2.78;;
17997;SDS011;9124;48.144;17.098;2023-07-31T01:40:15;2.92;;;2.70;;
17997;SDS011;9124;48.144;17.098;2023-07-31T01:44:42;2.72;;;2.60;;
17997;SDS011;9124;48.144;17.098;2023-07-31T01:49:09;4.75;;;2.60;;
17997;SDS011;9124;48.144;17.098;2023-07-31T01:53:35;3.70;;;2.53;;
17997;SDS011;9124;48.144;17.098;2023-07-31T01:58:02;5.68;;;2.75;;
17997;SDS011;9124;48.144;17.098;2023-07-31T02:02:28;5.38;;;2.33;;
17997;SDS011;9124;48.144;17.098;2023-07-31T02:06:54;5.45;;;2.58;;
17997;SDS011;9124;48.144;17.098;2023-07-31T02:11:21;2.63;;;2.42;;
17997;SDS011;9124;48.144;17.098;2023-07-31T02:15:49;4.35;;;2.55;;
17997;SDS011;9124;48.144;17.098;2023-07-31T02:20:16;2.85;;;2.65;;
17997;SDS011;9124;48.144;17.098;2023-07-31T02:24:42;7.90;;;2.80;;
17997;SDS011;9124;48.144;17.098;2023-07-31T02:29:09;3.10;;;2.90;;
17997;SDS011;9124;48.144;17.098;2023-07-31T02:33:35;2.90;;;2.50;;
17997;SDS011;9124;48.144;17.098;2023-07-31T02:38:01;3.72;;;2.72;;
17997;SDS011;9124;48.144;17.098;2023-07-31T02:42:28;2.58;;;2.25;;
17997;SDS011;9124;48.144;17.098;2023-07-31T02:46:54;7.05;;;2.50;;
17997;SDS011;9124;48.144;17.098;2023-07-31T02:51:21;2.75;;;2.28;;
17997;SDS011;9124;48.144;17.098;2023-07-31T02:55:47;2.50;;;2.30;;
17997;SDS011;9124;48.144;17.098;2023-07-31T03:00:13;2.60;;;2.33;;
17997;SDS011;9124;48.144;17.098;2023-07-31T03:04:39;3.65;;;2.33;;
17997;SDS011;9124;48.144;17.098;2023-07-31T03:14:12;5.22;;;2.80;;
17997;SDS011;9124;48.144;17.098;2023-07-31T03:18:39;3.00;;;2.80;;
17997;SDS011;9124;48.144;17.098;2023-07-31T03:23:06;3.15;;;2.70;;
17997;SDS011;9124;48.144;17.098;2023-07-31T03:27:33;3.42;;;2.30;;
17997;SDS011;9124;48.144;17.098;2023-07-31T03:36:30;3.95;;;2.42;;
17997;SDS011;9124;48.144;17.098;2023-07-31T03:40:57;3.00;;;2.60;;
17997;SDS011;9124;48.144;17.098;2023-07-31T03:45:25;3.08;;;2.78;;
17997;SDS011;9124;48.144;17.098;2023-07-31T03:49:51;4.28;;;2.58;;
17997;SDS011;9124;48.144;17.098;2023-07-31T03:54:18;6.47;;;2.25;;
17997;SDS011;9124;48.144;17.098;2023-07-31T03:58:44;2.90;;;2.67;;
17997;SDS011;9124;48.144;17.098;2023-07-31T04:03:11;6.10;;;3.05;;
17997;SDS011;9124;48.144;17.098;2023-07-31T04:07:37;2.60;;;2.40;;
17997;SDS011;9124;48.144;17.098;2023-07-31T04:12:04;4.30;;;2.53;;
17997;SDS011;9124;48.144;17.098;2023-07-31T04:16:30;1.50;;;1.40;;
17997;SDS011;9124;48.144;17.098;2023-07-31T04:20:56;2.88;;;1.83;;
17997;SDS011;9124;48.144;17.098;2023-07-31T04:25:24;4.28;;;1.90;;
17997;SDS011;9124;48.144;17.098;2023-07-31T04:29:50;5.38;;;2.15;;
17997;SDS011;9124;48.144;17.098;2023-07-31T04:34:16;2.35;;;2.20;;
17997;SDS011;9124;48.144;17.098;2023-07-31T04:38:43;4.70;;;2.17;;
17997;SDS011;9124;48.144;17.098;2023-07-31T04:43:09;4.55;;;2.35;;
17997;SDS011;9124;48.144;17.098;2023-07-31T04:47:36;2.95;;;2.17;;
17997;SDS011;9124;48.144;17.098;2023-07-31T04:52:02;3.33;;;1.90;;
17997;SDS011;9124;48.144;17.098;2023-07-31T04:56:29;2.88;;;2.40;;
17997;SDS011;9124;48.144;17.098;2023-07-31T05:00:55;3.78;;;2.47;;
17997;SDS011;9124;48.144;17.098;2023-07-31T05:05:22;2.00;;;1.70;;
17997;SDS011;9124;48.144;17.098;2023-07-31T05:21:14;3.72;;;2.03;;
17997;SDS011;9124;48.144;17.098;2023-07-31T05:25:40;3.22;;;2.35;;
17997;SDS011;9124;48.144;17.098;2023-07-31T05:30:07;6.55;;;1.80;;
17997;SDS011;9124;48.144;17.098;2023-07-31T05:34:34;3.70;;;2.50;;
17997;SDS011;9124;48.144;17.098;2023-07-31T05:39:01;5.30;;;2.35;;
17997;SDS011;9124;48.144;17.098;2023-07-31T05:43:32;2.40;;;2.17;;
17997;SDS011;9124;48.144;17.098;2023-07-31T05:47:58;3.97;;;2.13;;
17997;SDS011;9124;48.144;17.098;2023-07-31T05:52:25;4.53;;;2.00;;
17997;SDS011;9124;48.144;17.098;2023-07-31T05:56:51;3.92;;;2.00;;
17997;SDS011;9124;48.144;17.098;2023-07-31T06:01:21;3.38;;;2.20;;
17997;SDS011;9124;48.144;17.098;2023-07-31T06:05:47;5.75;;;2.58;;
17997;SDS011;9124;48.144;17.098;2023-07-31T06:10:13;5.45;;;2.00;;
17997;SDS011;9124;48.144;17.098;2023-07-31T06:14:40;2.20;;;2.00;;
17997;SDS011;9124;48.144;17.098;2023-07-31T06:19:06;3.38;;;2.13;;
17997;SDS011;9124;48.144;17.098;2023-07-31T06:23:33;7.15;;;2.30;;
17997;SDS011;9124;48.144;17.098;2023-07-31T06:27:59;3.90;;;1.83;;
17997;SDS011;9124;48.144;17.098;2023-07-31T06:32:25;2.15;;;1.70;;
17997;SDS011;9124;48.144;17.098;2023-07-31T06:36:52;8.02;;;1.95;;
17997;SDS011;9124;48.144;17.098;2023-07-31T06:41:18;3.42;;;1.77;;
17997;SDS011;9124;48.144;17.098;2023-07-31T06:45:46;3.60;;;2.05;;
17997;SDS011;9124;48.144;17.098;2023-07-31T06:50:16;2.65;;;1.95;;
17997;SDS011;9124;48.144;17.098;2023-07-31T06:54:42;3.80;;;1.90;;
17997;SDS011;9124;48.144;17.098;2023-07-31T06:59:08;3.47;;;1.80;;
17997;SDS011;9124;48.144;17.098;2023-07-31T07:03:35;3.97;;;1.58;;
17997;SDS011;9124;48.144;17.098;2023-07-31T07:08:01;2.30;;;1.83;;
17997;SDS011;9124;48.144;17.098;2023-07-31T07:17:21;2.30;;;1.85;;
17997;SDS011;9124;48.144;17.098;2023-07-31T07:26:40;7.82;;;2.22;;
17997;SDS011;9124;48.144;17.098;2023-07-31T07:31:07;3.03;;;1.55;;
17997;SDS011;9124;48.144;17.098;2023-07-31T07:35:33;2.83;;;2.30;;
17997;SDS011;9124;48.144;17.098;2023-07-31T07:40:00;2.45;;;1.70;;
17997;SDS011;9124;48.144;17.098;2023-07-31T07:44:26;2.15;;;1.80;;
17997;SDS011;9124;48.144;17.098;2023-07-31T07:48:53;1.75;;;1.60;;
17997;SDS011;9124;48.144;17.098;2023-07-31T07:53:19;3.42;;;1.58;;
17997;SDS011;9124;48.144;17.098;2023-07-31T07:57:45;4.00;;;2.20;;
17997;SDS011;9124;48.144;17.098;2023-07-31T08:02:15;2.25;;;1.90;;
17997;SDS011;9124;48.144;17.098;2023-07-31T08:06:42;9.10;;;2.10;;
17997;SDS011;9124;48.144;17.098;2023-07-31T08:11:08;1.95;;;1.75;;
17997;SDS011;9124;48.144;17.098;2023-07-31T08:15:35;2.55;;;1.90;;
17997;SDS011;9124;48.144;17.098;2023-07-31T08:20:01;2.25;;;1.80;;
17997;SDS011;9124;48.144;17.098;2023-07-31T08:24:28;1.90;;;1.80;;
17997;SDS011;9124;48.144;17.098;2023-07-31T08:28:54;2.00;;;1.90;;
17997;SDS011;9124;48.144;17.098;2023-07-31T08:33:21;3.25;;;2.10;;
17997;SDS011;9124;48.144;17.098;2023-07-31T08:37:47;3.03;;;1.95;;
17997;SDS011;9124;48.144;17.098;2023-07-31T08:42:13;1.63;;;1.52;;
17997;SDS011;9124;48.144;17.098;2023-07-31T08:46:39;3.38;;;2.38;;
17997;SDS011;9124;48.144;17.098;2023-07-31T08:51:10;2.85;;;1.70;;
17997;SDS011;9124;48.144;17.098;2023-07-31T08:55:37;1.70;;;1.58;;
17997;SDS011;9124;48.144;17.098;2023-07-31T09:06:30;2.13;;;1.63;;
17997;SDS011;9124;48.144;17.098;2023-07-31T09:11:02;2.38;;;1.70;;
17997;SDS011;9124;48.144;17.098;2023-07-31T09:15:28;1.83;;;1.73;;
17997;SDS011;9124;48.144;17.098;2023-07-31T09:19:55;1.90;;;1.80;;
17997;SDS011;9124;48.144;17.098;2023-07-31T09:24:28;2.97;;;1.98;;
17997;SDS011;9124;48.144;17.098;2023-07-31T09:28:57;1.90;;;1.80;;
17997;SDS011;9124;48.144;17.098;2023-07-31T09:33:23;2.15;;;2.03;;
17997;SDS011;9124;48.144;17.098;2023-07-31T09:37:51;1.77;;;1.60;;
17997;SDS011;9124;48.144;17.098;2023-07-31T09:42:25;2.38;;;2.10;;
17997;SDS011;9124;48.144;17.098;2023-07-31T09:46:52;2.03;;;1.83;;
17997;SDS011;9124;48.144;17.098;2023-07-31T09:51:26;1.90;;;1.80;;
17997;SDS011;9124;48.144;17.098;2023-07-31T09:55:53;2.08;;;1.88;;
17997;SDS011;9124;48.144;17.098;2023-07-31T10:00:19;2.75;;;1.95;;
17997;SDS011;9124;48.144;17.098;2023-07-31T10:04:51;2.35;;;2.03;;
17997;SDS011;9124;48.144;17.098;2023-07-31T10:09:20;2.25;;;2.05;;
17997;SDS011;9124;48.144;17.098;2023-07-31T10:13:49;1.90;;;1.70;;
17997;SDS011;9124;48.144;17.098;2023-07-31T10:18:16;1.90;;;1.52;;
17997;SDS011;9124;48.144;17.098;2023-07-31T10:22:44;3.55;;;1.75;;
17997;SDS011;9124;48.144;17.098;2023-07-31T10:27:12;1.65;;;1.55;;
17997;SDS011;9124;48.144;17.098;2023-07-31T10:31:38;3.97;;;1.80;;
17997;SDS011;9124;48.144;17.098;2023-07-31T10:36:19;1.58;;;1.48;;
17997;SDS011;9124;48.144;17.098;2023-07-31T10:40:46;3.92;;;1.83;;
17997;SDS011;9124;48.144;17.098;2023-07-31T10:45:13;3.90;;;1.80;;
17997;SDS011;9124;48.144;17.098;2023-07-31T10:49:40;6.22;;;2.20;;
17997;SDS011;9124;48.144;17.098;2023-07-31T10:54:10;3.05;;;1.85;;
17997;SDS011;9124;48.144;17.098;2023-07-31T10:58:39;4.07;;;1.75;;
17997;SDS011;9124;48.144;17.098;2023-07-31T11:12:45;5.25;;;2.25;;
17997;SDS011;9124;48.144;17.098;2023-07-31T11:17:12;6.65;;;1.80;;
17997;SDS011;9124;48.144;17.098;2023-07-31T11:21:39;3.63;;;1.95;;
17997;SDS011;9124;48.144;17.098;2023-07-31T11:26:06;2.22;;;1.98;;
17997;SDS011;9124;48.144;17.098;2023-07-31T11:30:33;4.13;;;1.77;;
17997;SDS011;9124;48.144;17.098;2023-07-31T11:35:01;7.60;;;1.83;;
17997;SDS011;9124;48.144;17.098;2023-07-31T11:39:31;3.90;;;2.03;;
17997;SDS011;9124;48.144;17.098;2023-07-31T11:44:00;4.35;;;1.98;;
17997;SDS011;9124;48.144;17.098;2023-07-31T11:48:28;2.75;;;2.00;;
17997;SDS011;9124;48.144;17.098;2023-07-31T11:52:59;3.25;;;2.17;;
17997;SDS011;9124;48.144;17.098;2023-07-31T11:57:32;1.95;;;1.80;;
17997;SDS011;9124;48.144;17.098;2023-07-31T12:01:59;6.38;;;2.00;;
17997;SDS011;9124;48.144;17.098;2023-07-31T12:06:32;3.42;;;1.73;;
17997;SDS011;9124;48.144;17.098;2023-07-31T12:11:04;4.25;;;1.80;;
17997;SDS011;9124;48.144;17.098;2023-07-31T12:15:39;4.78;;;2.35;;
17997;SDS011;9124;48.144;17.098;2023-07-31T12:20:05;3.42;;;1.65;;
17997;SDS011;9124;48.144;17.098;2023-07-31T12:24:33;2.20;;;1.98;;
17997;SDS011;9124;48.144;17.098;2023-07-31T12:29:00;7.57;;;2.25;;
17997;SDS011;9124;48.144;17.098;2023-07-31T12:33:35;3.78;;;1.90;;
17997;SDS011;9124;48.144;17.098;2023-07-31T12:38:03;4.72;;;2.20;;
17997;SDS011;9124;48.144;17.098;2023-07-31T12:42:30;6.90;;;2.45;;
17997;SDS011;9124;48.144;17.098;2023-07-31T12:46:57;6.20;;;2.28;;
17997;SDS011;9124;48.144;17.098;2023-07-31T12:51:23;5.10;;;2.10;;
17997;SDS011;9124;48.144;17.098;2023-07-31T12:55:50;22.67;;;3.67;;
17997;SDS011;9124;48.144;17.098;2023-07-31T13:00:16;5.68;;;2.03;;
17997;SDS011;9124;48.144;17.098;2023-07-31T13:04:43;9.20;;;2.17;;
17997;SDS011;9124;48.144;17.098;2023-07-31T13:09:09;3.67;;;1.75;;
17997;SDS011;9124;48.144;17.098;2023-07-31T13:13:36;3.13;;;1.92;;
17997;SDS011;9124;48.144;17.098;2023-07-31T13:18:03;3.22;;;1.80;;
17997;SDS011;9124;48.144;17.098;2023-07-31T13:22:30;3.42;;;2.25;;
17997;SDS011;9124;48.144;17.098;2023-07-31T13:26:56;2.65;;;1.90;;
17997;SDS011;9124;48.144;17.098;2023-07-31T13:31:23;1.80;;;1.70;;
17997;SDS011;9124;48.144;17.098;2023-07-31T13:35:49;4.50;;;1.90;;
17997;SDS011;9124;48.144;17.098;2023-07-31T13:40:16;7.30;;;1.98;;
17997;SDS011;9124;48.144;17.098;2023-07-31T13:44:42;4.50;;;1.83;;
17997;SDS011;9124;48.144;17.098;2023-07-31T13:49:09;3.33;;;1.75;;
17997;SDS011;9124;48.144;17.098;2023-07-31T13:53:35;3.05;;;1.52;;
17997;SDS011;9124;48.144;17.098;2023-07-31T13:58:02;3.63;;;1.70;;
17997;SDS011;9124;48.144;17.098;2023-07-31T14:02:28;2.78;;;1.70;;
17997;SDS011;9124;48.144;17.098;2023-07-31T14:06:55;5.45;;;1.83;;
17997;SDS011;9124;48.144;17.098;2023-07-31T14:11:22;2.15;;;1.95;;
17997;SDS011;9124;48.144;17.098;2023-07-31T14:15:48;2.65;;;1.75;;
17997;SDS011;9124;48.144;17.098;2023-07-31T14:20:15;3.58;;;1.65;;
17997;SDS011;9124;48.144;17.098;2023-07-31T14:24:41;3.58;;;1.90;;
17997;SDS011;9124;48.144;17.098;2023-07-31T14:29:07;3.95;;;1.65;;
17997;SDS011;9124;48.144;17.098;2023-07-31T14:33:34;3.20;;;2.10;;
17997;SDS011;9124;48.144;17.098;2023-07-31T14:38:01;3.33;;;1.75;;
17997;SDS011;9124;48.144;17.098;2023-07-31T14:42:28;4.38;;;1.83;;
17997;SDS011;9124;48.144;17.098;2023-07-31T14:46:54;8.77;;;2.30;;
17997;SDS011;9124;48.144;17.098;2023-07-31T14:51:21;4.18;;;1.63;;
17997;SDS011;9124;48.144;17.098;2023-07-31T14:55:47;6.10;;;1.58;;
17997;SDS011;9124;48.144;17.098;2023-07-31T15:00:13;4.13;;;1.88;;
17997;SDS011;9124;48.144;17.098;2023-07-31T15:04:40;3.47;;;1.92;;
17997;SDS011;9124;48.144;17.098;2023-07-31T15:09:07;4.20;;;1.88;;
17997;SDS011;9124;48.144;17.098;2023-07-31T15:13:33;2.92;;;1.95;;
17997;SDS011;9124;48.144;17.098;2023-07-31T15:18:00;5.70;;;1.75;;
17997;SDS011;9124;48.144;17.098;2023-07-31T15:22:26;5.75;;;1.80;;
17997;SDS011;9124;48.144;17.098;2023-07-31T15:26:53;1.75;;;1.65;;
17997;SDS011;9124;48.144;17.098;2023-07-31T15:31:19;3.08;;;1.92;;
17997;SDS011;9124;48.144;17.098;2023-07-31T15:35:46;3.25;;;2.17;;
17997;SDS011;9124;48.144;17.098;2023-07-31T15:40:12;4.70;;;1.60;;
17997;SDS011;9124;48.144;17.098;2023-07-31T15:44:39;6.88;;;1.88;;
17997;SDS011;9124;48.144;17.098;2023-07-31T15:49:05;5.32;;;1.90;;
17997;SDS011;9124;48.144;17.098;2023-07-31T15:53:33;2.95;;;1.92;;
17997;SDS011;9124;48.144;17.098;2023-07-31T15:57:59;1.70;;;1.60;;
17997;SDS011;9124;48.144;17.098;2023-07-31T16:02:25;2.40;;;1.67;;
17997;SDS011;9124;48.144;17.098;2023-07-31T16:06:52;2.30;;;2.00;;
17997;SDS011;9124;48.144;17.098;2023-07-31T16:11:18;4.80;;;2.15;;
17997;SDS011;9124;48.144;17.098;2023-07-31T16:15:44;2.38;;;2.08;;
17997;SDS011;9124;48.144;17.098;2023-07-31T16:20:11;2.78;;;1.83;;
17997;SDS011;9124;48.144;17.098;2023-07-31T16:24:37;2.58;;;1.80;;
17997;SDS011;9124;48.144;17.098;2023-07-31T16:29:04;2.70;;;1.80;;
17997;SDS011;9124;48.144;17.098;2023-07-31T16:33:30;2.17;;;1.77;;
17997;SDS011;9124;48.144;17.098;2023-07-31T16:37:59;3.90;;;1.98;;
17997;SDS011;9124;48.144;17.098;2023-07-31T16:42:25;5.43;;;2.08;;
17997;SDS011;9124;48.144;17.098;2023-07-31T16:46:51;5.05;;;1.75;;
17997;SDS011;9124;48.144;17.098;2023-07-31T16:51:17;6.63;;;2.00;;
17997;SDS011;9124;48.144;17.098;2023-07-31T16:55:46;3.28;;;1.95;;
17997;SDS011;9124;48.144;17.098;2023-07-31T17:00:12;3.22;;;2.13;;
17997;SDS011;9124;48.144;17.098;2023-07-31T17:04:39;5.03;;;2.00;;
17997;SDS011;9124;48.144;17.098;2023-07-31T17:09:06;2.70;;;1.88;;
17997;SDS011;9124;48.144;17.098;2023-07-31T17:13:33;2.80;;;2.08;;
17997;SDS011;9124;48.144;17.098;2023-07-31T17:17:59;4.10;;;1.90;;
17997;SDS011;9124;48.144;17.098;2023-07-31T17:22:26;3.25;;;1.67;;
17997;SDS011;9124;48.144;17.098;2023-07-31T17:26:53;5.78;;;1.90;;
17997;SDS011;9124;48.144;17.098;2023-07-31T17:31:20;4.40;;;2.15;;
17997;SDS011;9124;48.144;17.098;2023-07-31T17:35:46;3.42;;;2.13;;
17997;SDS011;9124;48.144;17.098;2023-07-31T17:40:14;4.47;;;2.05;;
17997;SDS011;9124;48.144;17.098;2023-07-31T17:44:40;5.55;;;2.22;;
17997;SDS011;9124;48.144;17.098;2023-07-31T17:49:06;8.55;;;2.28;;
17997;SDS011;9124;48.144;17.098;2023-07-31T17:53:35;4.88;;;2.10;;
17997;SDS011;9124;48.144;17.098;2023-07-31T17:58:02;5.28;;;2.30;;
17997;SDS011;9124;48.144;17.098;2023-07-31T18:02:28;5.55;;;1.88;;
17997;SDS011;9124;48.144;17.098;2023-07-31T18:06:55;2.38;;;1.80;;
17997;SDS011;9124;48.144;17.098;2023-07-31T18:11:21;5.20;;;1.90;;
17997;SDS011;9124;48.144;17.098;2023-07-31T18:15:54;9.07;;;2.22;;
17997;SDS011;9124;48.144;17.098;2023-07-31T18:20:21;3.55;;;2.15;;
17997;SDS011;9124;48.144;17.098;2023-07-31T18:24:47;4.22;;;2.75;;
17997;SDS011;9124;48.144;17.098;2023-07-31T18:29:14;5.22;;;2.38;;
17997;SDS011;9124;48.144;17.098;2023-07-31T18:33:40;7.80;;;2.85;;
17997;SDS011;9124;48.144;17.098;2023-07-31T18:38:09;2.20;;;1.90;;
17997;SDS011;9124;48.144;17.098;2023-07-31T18:42:35;3.05;;;2.05;;
17997;SDS011;9124;48.144;17.098;2023-07-31T18:47:01;5.15;;;2.47;;
17997;SDS011;9124;48.144;17.098;2023-07-31T18:51:28;6.50;;;2.10;;
17997;SDS011;9124;48.144;17.098;2023-07-31T18:55:56;7.30;;;2.38;;
17997;SDS011;9124;48.144;17.098;2023-07-31T19:00:23;6.35;;;2.58;;
17997;SDS011;9124;48.144;17.098;2023-07-31T19:04:49;3.78;;;2.53;;
17997;SDS011;9124;48.144;17.098;2023-07-31T19:09:26;8.82;;;3.13;;
17997;SDS011;9124;48.144;17.098;2023-07-31T19:14:16;4.63;;;2.20;;
17997;SDS011;9124;48.144;17.098;2023-07-31T19:18:43;8.85;;;2.88;;
17997;SDS011;9124;48.144;17.098;2023-07-31T19:23:09;3.95;;;2.15;;
17997;SDS011;9124;48.144;17.098;2023-07-31T19:27:36;6.30;;;2.85;;
17997;SDS011;9124;48.144;17.098;2023-07-31T19:32:03;3.38;;;2.45;;
17997;SDS011;9124;48.144;17.098;2023-07-31T19:36:29;4.18;;;2.80;;
17997;SDS011;9124;48.144;17.098;2023-07-31T19:40:57;6.28;;;2.70;;
17997;SDS011;9124;48.144;17.098;2023-07-31T19:45:26;5.47;;;2.90;;
17997;SDS011;9124;48.144;17.098;2023-07-31T19:49:53;5.20;;;2.83;;
17997;SDS011;9124;48.144;17.098;2023-07-31T19:54:19;9.30;;;2.75;;
17997;SDS011;9124;48.144;17.098;2023-07-31T19:58:46;6.10;;;2.42;;
17997;SDS011;9124;48.144;17.098;2023-07-31T20:03:12;5.65;;;2.53;;
17997;SDS011;9124;48.144;17.098;2023-07-31T20:07:39;3.22;;;2.25;;
17997;SDS011;9124;48.144;17.098;2023-07-31T20:12:06;3.83;;;2.63;;
17997;SDS011;9124;48.144;17.098;2023-07-31T20:16:32;3.08;;;2.20;;
17997;SDS011;9124;48.144;17.098;2023-07-31T20:21:04;6.22;;;2.38;;
17997;SDS011;9124;48.144;17.098;2023-07-31T20:25:30;5.82;;;2.00;;
17997;SDS011;9124;48.144;17.098;2023-07-31T20:29:59;3.97;;;2.55;;
17997;SDS011;9124;48.144;17.098;2023-07-31T20:34:25;4.43;;;2.50;;
17997;SDS011;9124;48.144;17.098;2023-07-31T20:38:51;2.67;;;2.40;;
17997;SDS011;9124;48.144;17.098;2023-07-31T20:43:18;5.18;;;2.40;;
17997;SDS011;9124;48.144;17.098;2023-07-31T20:47:45;3.65;;;2.40;;
17997;SDS011;9124;48.144;17.098;2023-07-31T20:52:11;2.92;;;2.72;;
17997;SDS011;9124;48.144;17.098;2023-07-31T20:56:38;6.55;;;2.45;;
17997;SDS011;9124;48.144;17.098;2023-07-31T21:01:04;6.60;;;2.95;;
17997;SDS011;9124;48.144;17.098;2023-07-31T21:05:31;4.65;;;2.90;;
17997;SDS011;9124;48.144;17.098;2023-07-31T21:09:57;4.47;;;2.75;;
17997;SDS011;9124;48.144;17.098;2023-07-31T21:14:24;3.33;;;2.25;;
17997;SDS011;9124;48.144;17.098;2023-07-31T21:18:50;6.90;;;3.08;;
17997;SDS011;9124;48.144;17.098;2023-07-31T21:23:17;5.32;;;2.65;;
17997;SDS011;9124;48.144;17.098;2023-07-31T21:27:43;2.72;;;2.53;;
17997;SDS011;9124;48.144;17.098;2023-07-31T21:32:10;5.55;;;2.95;;
17997;SDS011;9124;48.144;17.098;2023-07-31T21:36:36;4.05;;;2.65;;
17997;SDS011;9124;48.144;17.098;2023-07-31T21:41:03;5.40;;;3.00;;
17997;SDS011;9124;48.144;17.098;2023-07-31T21:45:30;4.50;;;2.63;;
17997;SDS011;9124;48.144;17.098;2023-07-31T21:49:56;4.03;;;2.97;;
17997;SDS011;9124;48.144;17.098;2023-07-31T21:54:22;6.88;;;2.70;;
17997;SDS011;9124;48.144;17.098;2023-07-31T21:58:49;3.92;;;2.92;;
17997;SDS011;9124;48.144;17.098;2023-07-31T22:03:15;6.38;;;2.85;;
17997;SDS011;9124;48.144;17.098;2023-07-31T22:07:42;3.22;;;2.92;;
17997;SDS011;9124;48.144;17.098;2023-07-31T22:12:08;4.10;;;3.03;;
17997;SDS011;9124;48.144;17.098;2023-07-31T22:16:35;4.78;;;2.60;;
17997;SDS011;9124;48.144;17.098;2023-07-31T22:21:02;4.75;;;2.47;;
17997;SDS011;9124;48.144;17.098;2023-07-31T22:25:29;8.52;;;3.08;;
17997;SDS011;9124;48.144;17.098;2023-07-31T22:29:55;5.70;;;3.15;;
17997;SDS011;9124;48.144;17.098;2023-07-31T22:34:22;3.25;;;2.92;;
17997;SDS011;9124;48.144;17.098;2023-07-31T22:38:48;3.67;;;2.83;;
17997;SDS011;9124;48.144;17.098;2023-07-31T22:43:15;5.38;;;3.13;;
17997;SDS011;9124;48.144;17.098;2023-07-31T22:47:41;9.27;;;3.05;;
17997;SDS011;9124;48.144;17.098;2023-07-31T22:52:08;3.05;;;2.78;;
17997;SDS011;9124;48.144;17.098;2023-07-31T22:56:35;5.78;;;3.40;;
17997;SDS011;9124;48.144;17.098;2023-07-31T23:01:05;4.75;;;2.97;;
17997;SDS011;9124;48.144;17.098;2023-07-31T23:05:36;3.63;;;3.33;;
17997;SDS011;9124;48.144;17.098;2023-07-31T23:10:03;4.75;;;3.10;;
17997;SDS011;9124;48.144;17.098;2023-07-31T23:14:29;5.85;;;3.35;;
17997;SDS011;9124;48.144;17.098;2023-07-31T23:18:56;3.08;;;2.85;;
17997;SDS011;9124;48.144;17.098;2023-07-31T23:23:23;3.28;;;2.97;;
17997;SDS011;9124;48.144;17.098;2023-07-31T23:27:50;6.25;;;3.38;;
17997;SDS011;9124;48.144;17.098;2023-07-31T23:32:16;3.53;;;3.22;;
17997;SDS011;9124;48.144;17.098;2023-07-31T23:36:43;4.28;;;3.08;;
17997;SDS011;9124;48.144;17.098;2023-07-31T23:41:09;3.20;;;2.75;;
17997;SDS011;9124;48.144;17.098;2023-07-31T23:45:36;4.63;;;4.10;;
17997;SDS011;9124;48.144;17.098;2023-07-31T23:50:06;8.95;;;5.15;;
17997;SDS011;9124;48.144;17.098;2023-07-31T23:54:34;5.63;;;4.75;;
17997;SDS011;9124;48.144;17.098;2023-07-31T23:59:00;5.00;;;4.50;;
